Time;durP1;ratioP1;P1;durP2;ratioP2;P2;SDS_P1;SDS_P2;PMS_P1;PMS_P2;Temp;Humidity;BMP_temperature;BMP_pressure;BME280_temperature;BME280_humidity;BME280_pressure;Samples;Min_cycle;Max_cycle;Signal;HPM_P1;HPM_P2
2023/09/08 00:01:31;;;;;;;8.15;5.13;;;;;;;20.32;73.04;101570.38;5000850;28;20092;-76
2023/09/08 00:03:58;;;;;;;6.65;5.15;;;;;;;20.30;73.59;101562.44;5004703;28;20038;-77
2023/09/08 00:06:25;;;;;;;7.00;5.13;;;;;;;20.27;73.57;101559.94;5004797;28;20042;-77
2023/09/08 00:08:52;;;;;;;7.55;5.22;;;;;;;20.19;73.32;101561.38;5008376;28;20449;-78
2023/09/08 00:11:19;;;;;;;10.40;6.25;;;;;;;20.06;73.48;101562.09;5007092;28;20069;-78
2023/09/08 00:13:46;;;;;;;7.15;5.25;;;;;;;19.96;73.78;101560.91;5003527;28;20068;-77
2023/09/08 00:16:13;;;;;;;8.60;5.05;;;;;;;19.89;74.08;101554.19;5004674;28;20060;-77
2023/09/08 00:18:40;;;;;;;9.27;5.70;;;;;;;19.82;74.37;101553.66;5004450;28;20073;-79
2023/09/08 00:21:07;;;;;;;11.90;5.60;;;;;;;19.76;74.59;101554.00;5004276;28;20502;-78
2023/09/08 00:23:34;;;;;;;8.07;5.90;;;;;;;19.67;74.95;101561.59;4998777;28;20128;-78
2023/09/08 00:26:01;;;;;;;9.70;5.90;;;;;;;19.59;74.85;101561.19;5009547;28;20049;-78
2023/09/08 00:28:28;;;;;;;8.27;6.18;;;;;;;19.50;75.37;101572.41;5006189;28;20164;-78
2023/09/08 00:30:55;;;;;;;7.43;5.60;;;;;;;19.39;75.49;101579.22;5018761;28;20142;-78
2023/09/08 00:33:22;;;;;;;7.43;6.13;;;;;;;19.33;76.00;101574.19;5005021;28;20081;-78
2023/09/08 00:35:50;;;;;;;9.13;6.15;;;;;;;19.30;75.85;101576.19;5006157;28;20065;-76
2023/09/08 00:38:17;;;;;;;9.35;6.72;;;;;;;19.26;76.37;101567.47;5004672;28;20030;-79
2023/09/08 00:40:44;;;;;;;10.82;6.95;;;;;;;19.21;76.40;101567.72;5003858;28;20041;-80
2023/09/08 00:43:11;;;;;;;12.13;6.82;;;;;;;19.17;76.87;101574.22;5002210;28;20050;-80
2023/09/08 00:45:42;;;;;;;10.65;7.05;;;;;;;19.17;77.21;101578.69;5005625;28;20045;-80
2023/09/08 00:48:10;;;;;;;10.07;6.85;;;;;;;19.19;77.61;101566.09;5019224;28;20292;-80
2023/09/08 00:50:38;;;;;;;9.60;7.28;;;;;;;19.21;77.24;101574.91;5001310;28;20042;-80
2023/09/08 00:53:07;;;;;;;11.05;7.03;;;;;;;19.20;77.47;101573.19;4998956;28;20052;-80
2023/09/08 00:55:35;;;;;;;9.38;7.05;;;;;;;19.19;77.56;101574.13;5035762;28;20042;-80
2023/09/08 00:58:03;;;;;;;11.02;6.72;;;;;;;19.18;77.81;101573.25;4999883;28;20058;-80
2023/09/08 01:00:31;;;;;;;9.68;7.10;;;;;;;19.18;77.69;101564.38;5034599;28;20128;-79
2023/09/08 01:03:00;;;;;;;10.48;6.65;;;;;;;19.16;77.40;101564.47;5017328;28;20045;-80
2023/09/08 01:05:27;;;;;;;8.75;6.75;;;;;;;19.17;77.56;101565.31;5002893;28;20115;-80
2023/09/08 01:07:56;;;;;;;9.75;6.93;;;;;;;19.15;77.29;101561.88;5002036;28;20053;-80
2023/09/08 01:10:23;;;;;;;10.55;7.20;;;;;;;19.08;77.29;101559.53;5001890;28;20128;-80
2023/09/08 01:12:51;;;;;;;11.32;6.82;;;;;;;19.01;77.36;101559.94;5018330;28;20120;-80
2023/09/08 01:15:18;;;;;;;9.10;7.05;;;;;;;18.92;77.65;101562.16;5003552;28;20441;-79
2023/09/08 01:17:45;;;;;;;9.10;6.60;;;;;;;18.88;78.02;101557.06;4997546;28;20096;-79
2023/09/08 01:20:24;;;;;;;9.20;6.55;;;;;;;18.82;78.29;101557.41;5003770;28;20070;-79
2023/09/08 01:23:21;;;;;;;9.75;7.20;;;;;;;18.72;78.22;101552.53;5002676;28;20093;-79
2023/09/08 01:25:59;;;;;;;9.13;7.30;;;;;;;18.66;78.41;101558.22;5004718;28;20186;-79
2023/09/08 01:28:28;;;;;;;9.52;7.25;;;;;;;18.62;78.52;101556.63;5005332;28;20156;-79
2023/09/08 01:30:56;;;;;;;10.48;7.50;;;;;;;18.61;79.20;101561.13;5002459;28;20096;-80
2023/09/08 01:33:25;;;;;;;11.25;7.50;;;;;;;18.59;79.18;101563.00;4999829;28;20049;-79
2023/09/08 01:35:52;;;;;;;9.32;7.03;;;;;;;18.57;79.13;101558.69;5000426;28;20042;-78
2023/09/08 01:38:21;;;;;;;8.88;6.50;;;;;;;18.53;79.41;101559.78;5000251;28;20053;-78
2023/09/08 01:40:48;;;;;;;8.02;6.53;;;;;;;18.49;79.48;101555.56;5002953;28;20042;-79
2023/09/08 01:43:15;;;;;;;8.65;6.80;;;;;;;18.44;79.98;101556.66;5002277;28;20057;-81
2023/09/08 01:45:42;;;;;;;9.20;6.60;;;;;;;18.39;79.71;101564.06;5018877;28;20470;-80
2023/09/08 01:48:09;;;;;;;10.65;7.22;;;;;;;18.35;80.19;101556.28;5001352;28;20092;-79
2023/09/08 01:50:37;;;;;;;10.20;6.53;;;;;;;18.31;80.27;101555.59;5003487;28;20255;-79
2023/09/08 01:53:04;;;;;;;9.82;6.30;;;;;;;18.26;80.59;101558.47;4999789;28;20129;-79
2023/09/08 01:55:31;;;;;;;11.40;6.43;;;;;;;18.22;80.75;101556.91;5002888;28;20448;-80
2023/09/08 01:57:58;;;;;;;10.20;6.53;;;;;;;18.19;80.88;101545.53;5015104;28;20050;-79
2023/09/08 02:00:25;;;;;;;9.70;6.32;;;;;;;18.13;81.23;101549.38;5001667;28;20128;-79
2023/09/08 02:02:52;;;;;;;10.13;6.75;;;;;;;18.07;81.08;101542.56;5019597;28;20081;-79
2023/09/08 02:05:20;;;;;;;9.43;6.53;;;;;;;18.06;81.15;101547.97;5002489;28;20045;-79
2023/09/08 02:07:49;;;;;;;11.95;7.43;;;;;;;18.03;81.43;101548.13;5004660;28;20049;-79
2023/09/08 02:10:20;;;;;;;9.27;6.10;;;;;;;17.97;81.92;101544.81;5002352;28;20048;-78
2023/09/08 02:12:47;;;;;;;10.80;7.05;;;;;;;17.95;82.15;101541.34;5011882;28;20042;-78
2023/09/08 02:15:17;;;;;;;9.80;6.65;;;;;;;17.91;81.92;101546.88;5003240;28;20046;-78
2023/09/08 02:17:44;;;;;;;10.15;7.15;;;;;;;17.83;82.45;101544.63;5004250;28;20786;-78
2023/09/08 02:20:11;;;;;;;8.60;6.80;;;;;;;17.76;82.90;101541.41;5004826;28;20152;-80
2023/09/08 02:22:39;;;;;;;8.95;6.85;;;;;;;17.70;82.56;101544.38;5035475;28;20061;-80
2023/09/08 02:25:06;;;;;;;12.30;7.25;;;;;;;17.64;82.87;101540.22;5005676;28;20041;-80
2023/09/08 02:27:33;;;;;;;9.98;7.90;;;;;;;17.61;82.81;101544.81;5003677;28;20073;-79
2023/09/08 02:30:01;;;;;;;10.68;7.20;;;;;;;17.58;83.34;101547.63;5018249;28;20034;-79
2023/09/08 02:32:29;;;;;;;11.27;7.57;;;;;;;17.54;83.89;101550.44;5002101;28;20566;-78
2023/09/08 02:34:56;;;;;;;12.45;7.70;;;;;;;17.56;83.57;101546.84;4998387;28;20041;-78
2023/09/08 02:37:23;;;;;;;9.65;7.82;;;;;;;17.51;83.86;101547.91;5001039;28;20050;-79
2023/09/08 02:39:50;;;;;;;10.98;7.15;;;;;;;17.45;83.55;101550.88;5002966;28;20399;-79
2023/09/08 02:42:18;;;;;;;11.73;7.68;;;;;;;17.43;83.83;101554.56;5019738;28;20524;-78
2023/09/08 02:44:45;;;;;;;13.43;7.50;;;;;;;17.38;84.17;101550.31;5021591;28;20057;-79
2023/09/08 02:47:12;;;;;;;11.48;7.57;;;;;;;17.35;84.45;101547.78;5006094;28;20559;-79
2023/09/08 02:49:41;;;;;;;11.30;6.88;;;;;;;17.32;84.66;101547.97;5004626;28;20050;-79
2023/09/08 02:52:09;;;;;;;9.77;7.00;;;;;;;17.29;84.99;101560.56;5020929;28;20041;-78
2023/09/08 02:54:36;;;;;;;9.48;6.95;;;;;;;17.25;85.54;101549.16;5008365;28;20045;-78
2023/09/08 02:57:04;;;;;;;10.57;7.70;;;;;;;17.22;85.32;101550.19;5005991;28;20074;-78
2023/09/08 02:59:31;;;;;;;9.32;7.05;;;;;;;17.16;85.45;101538.94;5007763;28;20041;-79
2023/09/08 03:01:59;;;;;;;9.40;7.15;;;;;;;17.10;85.53;101553.41;5003090;28;20045;-79
2023/09/08 03:04:27;;;;;;;9.68;7.40;;;;;;;17.03;85.29;101551.97;5004015;28;20038;-79
2023/09/08 03:06:55;;;;;;;11.23;7.60;;;;;;;16.97;85.13;101544.28;5007387;28;20034;-79
2023/09/08 03:09:22;;;;;;;10.85;8.00;;;;;;;16.92;86.05;101550.63;5006695;28;20045;-78
2023/09/08 03:11:49;;;;;;;11.40;7.35;;;;;;;16.89;86.45;101555.25;5019827;28;20052;-79
2023/09/08 03:14:16;;;;;;;12.30;8.85;;;;;;;16.83;86.36;101553.72;5004444;28;20053;-78
2023/09/08 03:16:43;;;;;;;11.93;7.70;;;;;;;16.78;86.91;101545.09;5005746;28;20125;-78
2023/09/08 03:19:11;;;;;;;12.48;7.75;;;;;;;16.79;87.34;101541.47;5007620;28;20042;-78
2023/09/08 03:21:38;;;;;;;11.90;7.43;;;;;;;16.79;86.93;101544.13;5005718;28;20453;-78
2023/09/08 03:24:05;;;;;;;13.00;7.60;;;;;;;16.75;87.32;101548.72;5005598;28;20049;-78
2023/09/08 03:26:33;;;;;;;11.38;8.00;;;;;;;16.72;87.35;101543.56;5006782;28;20121;-78
2023/09/08 03:29:00;;;;;;;12.50;8.38;;;;;;;16.66;87.52;101535.84;5006304;28;20056;-79
2023/09/08 03:31:27;;;;;;;11.75;8.68;;;;;;;16.64;87.81;101539.50;5004787;28;20045;-78
2023/09/08 03:33:55;;;;;;;12.27;7.95;;;;;;;16.61;88.27;101535.19;5001080;28;20046;-78
2023/09/08 03:36:23;;;;;;;10.90;7.95;;;;;;;16.61;87.91;101540.53;5020047;28;20675;-78
2023/09/08 03:38:50;;;;;;;11.02;8.70;;;;;;;16.61;88.02;101535.19;5004394;28;20038;-79
2023/09/08 03:41:17;;;;;;;12.32;8.85;;;;;;;16.61;88.02;101537.88;5017025;28;20064;-78
2023/09/08 03:43:45;;;;;;;11.40;8.20;;;;;;;16.60;87.99;101533.47;5002112;28;20722;-80
2023/09/08 03:46:12;;;;;;;11.23;8.27;;;;;;;16.59;88.21;101539.72;4985835;28;20654;-79
2023/09/08 03:48:39;;;;;;;13.23;8.70;;;;;;;16.57;87.64;101539.81;5003218;28;20041;-78
2023/09/08 03:51:06;;;;;;;9.95;8.57;;;;;;;16.57;88.26;101533.59;5013857;28;20042;-78
2023/09/08 03:53:34;;;;;;;11.02;7.95;;;;;;;16.56;88.16;101535.41;5006781;28;20050;-78
2023/09/08 03:56:02;;;;;;;12.63;8.20;;;;;;;16.55;88.53;101540.78;4999997;28;20042;-78
2023/09/08 03:58:29;;;;;;;11.98;8.48;;;;;;;16.52;88.58;101532.94;5005288;28;20057;-78
2023/09/08 04:00:56;;;;;;;12.90;8.48;;;;;;;16.52;89.06;101531.13;5005773;28;20045;-77
2023/09/08 04:03:24;;;;;;;9.55;8.02;;;;;;;16.51;89.30;101537.38;5004557;28;20057;-78
2023/09/08 04:05:51;;;;;;;9.45;7.90;;;;;;;16.48;88.62;101545.53;5002443;28;20050;-78
2023/09/08 04:08:18;;;;;;;11.55;8.23;;;;;;;16.44;89.14;101542.13;5006682;28;20053;-77
2023/09/08 04:10:45;;;;;;;11.57;8.95;;;;;;;16.44;89.19;101530.63;5020764;28;20077;-77
2023/09/08 04:13:12;;;;;;;10.60;9.45;;;;;;;16.44;89.58;101536.78;4997293;28;20849;-76
2023/09/08 04:15:39;;;;;;;12.18;8.95;;;;;;;16.51;89.59;101541.88;5001682;28;20042;-77
2023/09/08 04:18:07;;;;;;;14.93;9.93;;;;;;;16.54;89.74;101536.38;5004893;28;20042;-77
2023/09/08 04:20:34;;;;;;;16.60;9.50;;;;;;;16.56;89.83;101543.41;5005011;28;20045;-77
2023/09/08 04:23:01;;;;;;;14.32;8.85;;;;;;;16.59;88.98;101529.06;4997174;28;20044;-77
2023/09/08 04:25:28;;;;;;;11.68;8.43;;;;;;;16.62;89.35;101542.25;5004182;28;20046;-77
2023/09/08 04:27:55;;;;;;;12.27;8.93;;;;;;;16.67;90.03;101537.56;5005439;28;20064;-79
2023/09/08 04:30:22;;;;;;;11.15;7.75;;;;;;;16.72;90.01;101535.59;5002832;28;20101;-76
2023/09/08 04:32:49;;;;;;;13.23;9.35;;;;;;;16.85;90.35;101540.31;4997639;28;20092;-76
2023/09/08 04:35:16;;;;;;;13.18;9.43;;;;;;;16.95;89.69;101532.81;4981504;28;20145;-76
2023/09/08 04:37:44;;;;;;;14.65;10.10;;;;;;;16.97;89.39;101536.28;5001672;28;20052;-78
2023/09/08 04:40:11;;;;;;;11.82;9.25;;;;;;;16.96;89.56;101527.41;5001284;28;20064;-77
2023/09/08 04:42:39;;;;;;;11.82;8.50;;;;;;;16.95;89.17;101531.00;5016172;28;20336;-78
2023/09/08 04:45:10;;;;;;;22.02;9.45;;;;;;;16.96;88.99;101530.09;5003086;28;20592;-74
2023/09/08 04:47:40;;;;;;;10.90;9.20;;;;;;;16.98;89.08;101522.03;5003592;28;20126;-73
2023/09/08 04:50:10;;;;;;;12.70;9.60;;;;;;;16.99;88.73;101532.63;4985373;28;20050;-77
2023/09/08 04:52:42;;;;;;;13.35;10.02;;;;;;;16.99;89.03;101524.63;4986500;28;20073;-78
2023/09/08 04:55:13;;;;;;;14.57;9.43;;;;;;;17.00;88.65;101538.78;4983374;28;20104;-73
2023/09/08 04:57:41;;;;;;;11.02;8.80;;;;;;;17.00;88.73;101530.81;4984901;28;20438;-74
2023/09/08 05:00:09;;;;;;;13.52;9.70;;;;;;;17.04;89.02;101527.91;5018727;28;20041;-75
2023/09/08 05:02:36;;;;;;;12.35;9.02;;;;;;;17.10;88.99;101529.44;5001883;28;20128;-76
2023/09/08 05:05:05;;;;;;;13.02;9.63;;;;;;;17.15;88.73;101530.09;5013421;28;21265;-76
2023/09/08 05:07:32;;;;;;;16.88;9.65;;;;;;;17.17;88.12;101532.69;5031865;28;20072;-75
2023/09/08 05:09:59;;;;;;;11.95;9.98;;;;;;;17.19;88.24;101537.03;5008727;28;20518;-75
2023/09/08 05:12:30;;;;;;;12.38;9.90;;;;;;;17.19;88.41;101531.69;5003543;28;20034;-76
2023/09/08 05:15:05;;;;;;;12.25;9.93;;;;;;;17.19;88.00;101536.13;5007330;28;20046;-75
2023/09/08 05:17:35;;;;;;;12.30;9.27;;;;;;;17.28;87.82;101525.03;4996640;28;20037;-72
2023/09/08 05:20:03;;;;;;;16.75;9.95;;;;;;;17.42;87.05;101535.03;4991556;28;20073;-72
2023/09/08 05:22:30;;;;;;;12.68;9.38;;;;;;;17.32;86.96;101528.44;4999585;28;20227;-72
2023/09/08 05:24:59;;;;;;;13.13;9.40;;;;;;;17.27;87.43;101535.78;4993966;28;20045;-72
2023/09/08 05:27:26;;;;;;;12.02;9.90;;;;;;;17.26;87.50;101545.56;4998013;28;20054;-72
2023/09/08 05:29:54;;;;;;;12.35;9.70;;;;;;;17.26;87.60;101542.06;5012917;28;20065;-72
2023/09/08 05:32:21;;;;;;;14.10;10.05;;;;;;;17.28;87.71;101545.50;5000129;28;20037;-72
2023/09/08 05:34:48;;;;;;;15.30;10.40;;;;;;;17.29;87.60;101537.44;4991757;28;20042;-72
2023/09/08 05:37:16;;;;;;;11.82;9.73;;;;;;;17.34;87.51;101543.44;4995038;28;20334;-71
2023/09/08 05:39:43;;;;;;;13.63;9.93;;;;;;;17.39;88.23;101537.88;4994484;28;20155;-71
2023/09/08 05:42:10;;;;;;;13.18;9.75;;;;;;;17.44;87.72;101540.31;4996468;28;20048;-71
2023/09/08 05:44:39;;;;;;;17.33;9.25;;;;;;;17.49;87.46;101544.50;5014654;28;20039;-71
2023/09/08 05:47:06;;;;;;;15.90;9.52;;;;;;;17.54;87.34;101536.25;5007978;28;20047;-71
2023/09/08 05:49:33;;;;;;;14.60;9.77;;;;;;;17.59;87.07;101542.22;5015181;28;20100;-71
2023/09/08 05:52:04;;;;;;;15.07;10.10;;;;;;;17.65;87.28;101546.41;5019207;28;20502;-71
2023/09/08 05:54:32;;;;;;;16.33;9.65;;;;;;;17.69;87.15;101537.31;5003547;28;20037;-71
2023/09/08 05:56:59;;;;;;;16.60;10.00;;;;;;;17.76;87.03;101540.50;5019170;28;20100;-71
2023/09/08 05:59:26;;;;;;;12.07;9.35;;;;;;;17.81;86.77;101544.69;4999687;28;20526;-71
2023/09/08 06:01:54;;;;;;;12.38;9.20;;;;;;;17.88;86.13;101547.06;5004233;28;20046;-71
2023/09/08 06:04:21;;;;;;;13.75;9.20;;;;;;;17.94;86.46;101542.28;5017766;28;20089;-71
2023/09/08 06:06:49;;;;;;;13.98;9.70;;;;;;;18.03;86.26;101548.13;4999585;28;20052;-71
2023/09/08 06:09:16;;;;;;;14.02;8.98;;;;;;;18.09;86.31;101546.03;5008717;28;20050;-71
2023/09/08 06:11:43;;;;;;;13.05;9.80;;;;;;;18.16;85.85;101550.09;5007341;28;20050;-70
2023/09/08 06:14:11;;;;;;;15.73;9.73;;;;;;;18.24;85.92;101548.81;5004626;28;20045;-71
2023/09/08 06:16:41;;;;;;;14.65;9.60;;;;;;;18.30;85.55;101549.38;5002159;28;20502;-71
2023/09/08 06:19:08;;;;;;;15.30;9.30;;;;;;;18.39;85.31;101547.16;5020975;28;20073;-72
2023/09/08 06:21:35;;;;;;;14.10;10.07;;;;;;;18.45;85.10;101549.53;5005232;28;20100;-71
2023/09/08 06:24:03;;;;;;;19.90;10.07;;;;;;;18.55;84.87;101549.91;5006592;28;20042;-71
2023/09/08 06:26:30;;;;;;;12.23;9.50;;;;;;;18.61;84.79;101554.94;5007701;28;20042;-71
2023/09/08 06:28:58;;;;;;;16.13;9.25;;;;;;;18.69;84.41;101547.38;5008101;28;20048;-71
2023/09/08 06:31:27;;;;;;;14.13;9.10;;;;;;;18.78;84.19;101552.22;5009151;28;20052;-71
2023/09/08 06:33:54;;;;;;;13.15;9.75;;;;;;;18.85;83.90;101554.53;4988324;28;20680;-71
2023/09/08 06:36:22;;;;;;;13.65;9.40;;;;;;;18.93;83.54;101555.91;5007914;28;20103;-71
2023/09/08 06:38:51;;;;;;;11.07;8.43;;;;;;;19.02;83.33;101559.00;5022769;28;20144;-71
2023/09/08 06:41:19;;;;;;;13.80;9.25;;;;;;;19.08;83.01;101558.66;5007705;28;20046;-71
2023/09/08 06:43:46;;;;;;;18.92;10.00;;;;;;;19.17;82.94;101557.31;5009239;28;20127;-71
2023/09/08 06:46:19;;;;;;;13.27;8.95;;;;;;;19.25;82.69;101560.41;5007805;28;20045;-71
2023/09/08 06:48:47;;;;;;;15.57;9.40;;;;;;;19.32;82.36;101559.13;5006198;28;20033;-71
2023/09/08 06:51:14;;;;;;;16.40;9.48;;;;;;;19.42;82.28;101555.94;5007578;28;20042;-71
2023/09/08 06:53:43;;;;;;;13.02;9.68;;;;;;;19.51;81.72;101563.44;5008038;28;20402;-71
2023/09/08 06:56:11;;;;;;;11.10;8.98;;;;;;;19.59;81.29;101560.31;5013118;28;20049;-72
2023/09/08 06:58:38;;;;;;;14.50;9.70;;;;;;;19.66;81.48;101559.03;5036338;28;20045;-71
2023/09/08 07:01:05;;;;;;;13.82;9.88;;;;;;;19.75;81.29;101566.53;5006171;28;20056;-71
2023/09/08 07:03:36;;;;;;;12.45;8.95;;;;;;;19.85;81.34;101567.75;5012217;28;20122;-71
2023/09/08 07:06:05;;;;;;;10.87;8.70;;;;;;;19.96;80.72;101569.78;5006734;28;20141;-71
2023/09/08 07:08:33;;;;;;;12.32;8.50;;;;;;;20.07;80.51;101573.63;5006642;28;20066;-71
2023/09/08 07:11:00;;;;;;;11.48;8.23;;;;;;;20.16;80.28;101573.09;5038977;28;20516;-71
2023/09/08 07:13:27;;;;;;;13.40;8.43;;;;;;;20.26;80.40;101570.75;5006716;28;20157;-71
2023/09/08 07:15:56;;;;;;;12.25;8.38;;;;;;;20.38;79.92;101574.50;5006466;28;20049;-71
2023/09/08 07:18:24;;;;;;;9.18;8.05;;;;;;;20.50;79.94;101576.44;4997901;28;20132;-71
2023/09/08 07:20:51;;;;;;;11.40;8.30;;;;;;;20.60;79.65;101569.56;5007742;28;20135;-71
2023/09/08 07:23:19;;;;;;;14.48;8.73;;;;;;;20.71;79.20;101574.25;4991247;28;20045;-71
2023/09/08 07:25:48;;;;;;;9.90;7.53;;;;;;;20.84;78.91;101566.34;5007395;28;20100;-71
2023/09/08 07:28:17;;;;;;;11.38;7.60;;;;;;;20.94;78.45;101574.66;5006226;28;20064;-71
2023/09/08 07:30:46;;;;;;;11.07;7.38;;;;;;;21.05;77.55;101565.97;4998929;28;20046;-71
2023/09/08 07:33:14;;;;;;;11.65;7.50;;;;;;;21.17;77.50;101575.88;5003044;28;20121;-71
2023/09/08 07:35:42;;;;;;;11.95;7.13;;;;;;;21.28;77.46;101572.53;5020140;28;20057;-72
2023/09/08 07:38:09;;;;;;;9.00;6.63;;;;;;;21.39;76.29;101563.78;5006772;28;20049;-71
2023/09/08 07:40:36;;;;;;;13.82;6.38;;;;;;;21.50;75.93;101573.84;4999041;28;20038;-71
2023/09/08 07:43:05;;;;;;;11.07;6.47;;;;;;;21.61;74.98;101567.78;5004858;28;20042;-71
2023/09/08 07:45:32;;;;;;;8.50;6.53;;;;;;;21.70;74.84;101573.41;5004938;28;20038;-72
2023/09/08 07:47:59;;;;;;;15.60;7.22;;;;;;;21.79;73.83;101571.94;4988620;28;20068;-72
2023/09/08 07:50:28;;;;;;;10.05;6.68;;;;;;;21.90;74.50;101568.56;5004214;28;20049;-72
2023/09/08 07:52:56;;;;;;;10.98;6.60;;;;;;;22.00;74.29;101564.28;5007008;28;20034;-72
2023/09/08 07:55:28;;;;;;;13.05;7.07;;;;;;;22.12;73.55;101559.91;5018904;28;20055;-71
2023/09/08 07:57:57;;;;;;;11.55;6.63;;;;;;;22.22;73.35;101560.16;5008116;28;20133;-71
2023/09/08 08:00:24;;;;;;;8.40;6.10;;;;;;;22.34;72.80;101563.81;5007027;28;20502;-72
2023/09/08 08:02:55;;;;;;;8.88;6.10;;;;;;;22.44;71.51;101564.91;5007138;28;20045;-72
2023/09/08 08:05:22;;;;;;;8.48;6.03;;;;;;;22.54;71.83;101561.59;5004938;28;20045;-71
2023/09/08 08:07:50;;;;;;;10.15;6.13;;;;;;;22.67;71.48;101566.94;5006752;28;20128;-72
2023/09/08 08:10:19;;;;;;;8.82;6.20;;;;;;;22.76;70.92;101566.31;5004540;28;20066;-72
2023/09/08 08:12:46;;;;;;;9.60;5.78;;;;;;;22.87;71.41;101568.25;5006828;28;20104;-71
2023/09/08 08:15:13;;;;;;;8.98;5.72;;;;;;;22.98;70.85;101568.34;5006617;28;20131;-72
2023/09/08 08:17:41;;;;;;;9.38;5.72;;;;;;;23.09;70.25;101572.94;5004377;28;20972;-72
2023/09/08 08:20:16;;;;;;;8.30;6.05;;;;;;;23.18;69.80;101557.97;5003565;28;20573;-72
2023/09/08 08:22:45;;;;;;;10.27;6.07;;;;;;;23.31;69.73;101568.72;5004532;28;20505;-71
2023/09/08 08:25:13;;;;;;;10.77;5.90;;;;;;;23.41;69.99;101565.22;5002173;28;20559;-72
2023/09/08 08:27:41;;;;;;;8.27;5.60;;;;;;;23.56;69.79;101574.00;5002241;28;20073;-71
2023/09/08 08:30:09;;;;;;;8.07;5.22;;;;;;;23.69;69.27;101565.91;4999085;28;20049;-71
2023/09/08 08:32:36;;;;;;;9.70;5.55;;;;;;;23.82;68.42;101573.03;5011938;28;20084;-71
2023/09/08 08:35:07;;;;;;;7.88;5.60;;;;;;;23.93;68.03;101573.06;5008006;28;20042;-71
2023/09/08 08:37:34;;;;;;;9.55;6.65;;;;;;;24.03;68.12;101567.91;5006377;28;20120;-71
2023/09/08 08:40:02;;;;;;;15.57;7.47;;;;;;;24.13;68.37;101568.03;5005419;28;20042;-71
2023/09/08 08:42:33;;;;;;;10.63;6.90;;;;;;;24.25;68.22;101569.78;5006649;28;20774;-72
2023/09/08 08:45:01;;;;;;;11.93;6.78;;;;;;;24.33;68.28;101569.22;5005687;28;20096;-71
2023/09/08 08:47:29;;;;;;;11.68;6.53;;;;;;;24.41;68.06;101572.16;5005131;28;20046;-71
2023/09/08 08:49:58;;;;;;;13.57;6.50;;;;;;;24.52;68.25;101567.78;5004804;28;20037;-72
2023/09/08 08:52:27;;;;;;;11.23;6.38;;;;;;;24.62;67.79;101566.06;5005200;28;20050;-71
2023/09/08 08:54:55;;;;;;;10.85;6.97;;;;;;;24.73;67.56;101570.63;5005516;28;20046;-71
2023/09/08 08:57:22;;;;;;;11.43;6.03;;;;;;;24.86;67.33;101567.84;4999738;28;20046;-72
2023/09/08 08:59:52;;;;;;;11.82;5.85;;;;;;;24.99;66.84;101565.00;5006275;28;20041;-72
2023/09/08 09:02:22;;;;;;;7.63;5.75;;;;;;;25.12;65.96;101563.03;5005617;28;20623;-71
2023/09/08 09:04:50;;;;;;;11.70;6.03;;;;;;;25.24;65.90;101562.03;5005400;28;20053;-71
2023/09/08 09:07:18;;;;;;;8.80;5.28;;;;;;;25.37;64.53;101555.63;5005382;28;20049;-72
2023/09/08 09:09:46;;;;;;;8.63;5.05;;;;;;;25.48;64.64;101552.09;5005947;28;20046;-71
2023/09/08 09:12:13;;;;;;;8.05;5.13;;;;;;;25.61;65.02;101551.94;5020256;28;20057;-72
2023/09/08 09:14:48;;;;;;;5.78;4.97;;;;;;;25.72;64.83;101554.59;5004847;28;20042;-71
2023/09/08 09:17:15;;;;;;;10.30;4.70;;;;;;;25.83;64.58;101550.97;5005158;28;20078;-71
2023/09/08 09:19:42;;;;;;;6.88;5.43;;;;;;;25.94;64.31;101555.47;5004684;28;20073;-72
2023/09/08 09:22:09;;;;;;;10.10;5.30;;;;;;;26.03;64.14;101550.13;5003699;28;20123;-72
2023/09/08 09:24:43;;;;;;;7.68;4.80;;;;;;;26.15;63.78;101553.66;5005265;28;20041;-71
2023/09/08 09:27:12;;;;;;;8.73;5.88;;;;;;;26.22;61.79;101556.69;5004732;28;20081;-71
2023/09/08 09:29:47;;;;;;;12.00;5.35;;;;;;;26.31;62.69;101563.16;5004887;28;20498;-72
2023/09/08 09:32:16;;;;;;;7.57;5.45;;;;;;;26.40;63.01;101561.53;5002404;28;20042;-72
2023/09/08 09:34:50;;;;;;;12.55;5.50;;;;;;;26.51;62.75;101550.59;4996840;28;20068;-72
2023/09/08 09:37:18;;;;;;;10.60;6.00;;;;;;;26.59;62.52;101558.91;5013018;28;20046;-72
2023/09/08 09:39:54;;;;;;;8.95;5.75;;;;;;;26.66;62.33;101556.50;5005179;28;20437;-72
2023/09/08 09:42:22;;;;;;;8.07;5.45;;;;;;;26.73;62.39;101554.13;5019538;28;20042;-72
2023/09/08 09:44:51;;;;;;;9.30;5.38;;;;;;;26.81;61.82;101562.44;5005409;28;20038;-71
2023/09/08 09:47:20;;;;;;;10.77;5.65;;;;;;;26.88;61.65;101558.22;5036057;28;20279;-72
2023/09/08 09:49:49;;;;;;;8.80;6.38;;;;;;;26.95;61.34;101564.78;5004699;28;20046;-71
2023/09/08 09:52:25;;;;;;;10.98;6.97;;;;;;;27.02;60.97;101557.00;5004394;28;20358;-72
2023/09/08 09:54:55;;;;;;;9.85;6.40;;;;;;;27.11;61.13;101569.69;5001787;28;20045;-72
2023/09/08 09:57:23;;;;;;;11.30;6.00;;;;;;;27.21;59.79;101563.44;5000718;28;20038;-72
2023/09/08 09:59:53;;;;;;;15.82;6.63;;;;;;;27.26;59.75;101558.50;5004009;28;20100;-72
2023/09/08 10:02:21;;;;;;;10.57;5.70;;;;;;;27.33;59.92;101556.06;5011957;28;20048;-72
2023/09/08 10:04:50;;;;;;;7.65;5.65;;;;;;;27.41;59.94;101559.78;5017059;28;20044;-71
2023/09/08 10:07:18;;;;;;;9.32;5.25;;;;;;;27.51;59.08;101562.56;5004229;28;20049;-72
2023/09/08 10:09:46;;;;;;;8.57;4.78;;;;;;;27.58;58.54;101554.69;5001895;28;20088;-72
2023/09/08 10:12:16;;;;;;;4.88;4.03;;;;;;;27.63;58.47;101551.56;4998037;28;20046;-72
2023/09/08 10:14:48;;;;;;;20.08;5.03;;;;;;;27.72;57.01;101551.59;5002588;28;20038;-72
2023/09/08 10:17:24;;;;;;;6.80;4.93;;;;;;;27.79;57.20;101551.00;5003214;28;20037;-72
2023/09/08 10:19:56;;;;;;;6.65;4.45;;;;;;;27.86;56.89;101553.00;5020137;28;20064;-72
2023/09/08 10:22:30;;;;;;;8.93;5.55;;;;;;;27.96;56.99;101554.84;4996333;28;20046;-72
2023/09/08 10:25:07;;;;;;;8.50;5.70;;;;;;;28.03;56.27;101545.16;5002845;28;20465;-71
2023/09/08 10:27:38;;;;;;;6.10;4.40;;;;;;;28.09;56.18;101544.59;5008449;28;20057;-72
2023/09/08 10:30:07;;;;;;;12.13;4.72;;;;;;;28.13;56.08;101548.72;5004790;28;20056;-72
2023/09/08 10:32:36;;;;;;;14.88;4.90;;;;;;;28.18;56.48;101546.44;5001850;28;20117;-71
2023/09/08 10:35:06;;;;;;;10.38;4.95;;;;;;;28.26;55.96;101544.84;5004809;28;20108;-71
2023/09/08 10:37:33;;;;;;;8.23;4.43;;;;;;;28.34;55.93;101544.97;5018834;28;20034;-72
2023/09/08 10:40:33;;;;;;;10.50;4.70;;;;;;;28.46;56.19;101541.09;5003895;28;20053;-72
2023/09/08 10:43:08;;;;;;;5.53;4.20;;;;;;;28.61;56.36;101540.63;5003297;28;20431;-72
2023/09/08 10:45:35;;;;;;;9.15;4.88;;;;;;;28.69;55.22;101537.19;4998311;28;20030;-72
2023/09/08 10:48:03;;;;;;;9.93;5.20;;;;;;;28.77;54.86;101537.31;5004995;28;20100;-72
2023/09/08 10:50:34;;;;;;;7.28;4.30;;;;;;;28.81;54.32;101539.56;5007004;28;20604;-72
2023/09/08 10:53:16;;;;;;;5.38;4.10;;;;;;;28.88;54.12;101539.84;5003794;28;20046;-72
2023/09/08 10:55:53;;;;;;;6.20;4.70;;;;;;;28.95;53.80;101546.34;5034200;28;20039;-72
2023/09/08 10:58:43;;;;;;;7.18;4.80;;;;;;;29.04;54.00;101541.03;4989881;28;20042;-71
2023/09/08 11:01:18;;;;;;;5.82;4.40;;;;;;;29.12;52.10;101544.69;4999222;28;20120;-71
2023/09/08 11:03:49;;;;;;;8.65;4.30;;;;;;;29.19;51.79;101536.81;5005842;28;20048;-72
2023/09/08 11:06:22;;;;;;;6.25;4.80;;;;;;;29.31;51.88;101542.00;5009714;28;20091;-72
2023/09/08 11:08:55;;;;;;;5.30;4.30;;;;;;;29.37;52.22;101534.13;5007550;28;20038;-72
2023/09/08 11:11:23;;;;;;;8.50;4.28;;;;;;;29.43;52.40;101536.25;5003581;28;20046;-72
2023/09/08 11:13:50;;;;;;;8.10;4.65;;;;;;;29.55;52.81;101530.59;5007376;28;20034;-72
2023/09/08 11:16:22;;;;;;;6.03;4.53;;;;;;;29.63;51.85;101533.38;5007024;28;20045;-72
2023/09/08 11:18:51;;;;;;;9.02;4.28;;;;;;;29.70;51.41;101530.88;5007030;28;20050;-72
2023/09/08 11:21:18;;;;;;;8.05;4.50;;;;;;;29.78;51.97;101524.66;5004606;28;20308;-72
2023/09/08 11:23:46;;;;;;;8.88;4.28;;;;;;;29.85;52.42;101532.03;5006647;28;20066;-72
2023/09/08 11:26:13;;;;;;;9.35;4.80;;;;;;;29.91;52.03;101523.22;5019863;28;20049;-72